Time;durP1;ratioP1;P1;durP2;ratioP2;P2;SDS_P1;SDS_P2;PMS_P1;PMS_P2;Temp;Humidity;BMP_temperature;BMP_pressure;BME280_temperature;BME280_humidity;BME280_pressure;Samples;Min_cycle;Max_cycle;Signal;HPM_P1;HPM_P2
2024/01/21 00:00:42;;;;;;;0.60;0.60;;;;;;;-2.91;100.00;102254.91;5099000;28;20035;-59
2024/01/21 00:03:08;;;;;;;0.60;0.60;;;;;;;-2.95;100.00;102248.66;5098278;28;20020;-58
2024/01/21 00:05:33;;;;;;;0.60;0.60;;;;;;;-3.02;100.00;102246.19;5098405;28;20020;-59
2024/01/21 00:07:59;;;;;;;0.70;0.70;;;;;;;-3.06;100.00;102242.47;5094745;28;20533;-59
2024/01/21 00:10:24;;;;;;;0.63;0.63;;;;;;;-3.12;100.00;102228.28;5094545;28;20028;-59
2024/01/21 00:12:49;;;;;;;0.60;0.60;;;;;;;-3.19;100.00;102227.66;5095650;28;20353;-59
2024/01/21 00:15:14;;;;;;;0.50;0.50;;;;;;;-3.23;100.00;102224.63;5095442;28;20051;-59
2024/01/21 00:17:40;;;;;;;0.70;0.70;;;;;;;-3.24;100.00;102221.22;5094808;28;20027;-58
2024/01/21 00:20:05;;;;;;;0.70;0.70;;;;;;;-3.26;100.00;102224.31;5095408;28;20024;-59
2024/01/21 00:22:31;;;;;;;0.60;0.60;;;;;;;-3.31;100.00;102217.13;5095216;28;20036;-59
2024/01/21 00:24:56;;;;;;;0.70;0.70;;;;;;;-3.34;100.00;102219.31;5094590;28;20063;-59
2024/01/21 00:27:21;;;;;;;0.50;0.50;;;;;;;-3.36;100.00;102223.28;5095003;28;20415;-59
2024/01/21 00:29:46;;;;;;;0.50;0.50;;;;;;;-3.32;99.23;102220.41;5095448;28;20056;-59
2024/01/21 00:32:12;;;;;;;0.60;0.60;;;;;;;-3.38;100.00;102214.69;5094279;28;20426;-59
2024/01/21 00:34:37;;;;;;;0.63;0.63;;;;;;;-3.40;100.00;102206.06;5095308;28;20060;-59
2024/01/21 00:37:02;;;;;;;0.70;0.70;;;;;;;-3.39;99.75;102201.94;5095191;28;20020;-59
2024/01/21 00:39:28;;;;;;;0.65;0.65;;;;;;;-3.46;100.00;102195.31;5094409;28;20020;-59
2024/01/21 00:41:55;;;;;;;0.70;0.70;;;;;;;-3.50;98.88;102194.09;5094965;28;20032;-59
2024/01/21 00:44:20;;;;;;;0.70;0.70;;;;;;;-3.48;99.98;102196.78;5094356;28;20040;-59
2024/01/21 00:46:47;;;;;;;0.60;0.60;;;;;;;-3.53;99.83;102202.94;5094271;28;20035;-59
2024/01/21 00:49:12;;;;;;;0.60;0.60;;;;;;;-3.56;100.00;102197.59;5094621;28;20455;-59
2024/01/21 00:51:38;;;;;;;0.60;0.60;;;;;;;-3.51;100.00;102209.94;5094703;28;20020;-59
2024/01/21 00:54:03;;;;;;;0.70;0.70;;;;;;;-3.61;99.31;102214.72;5094389;28;20024;-59
2024/01/21 00:56:28;;;;;;;0.70;0.70;;;;;;;-3.59;98.58;102212.38;5094575;28;20024;-59
2024/01/21 00:58:54;;;;;;;0.60;0.60;;;;;;;-3.65;98.85;102200.00;5094179;28;20028;-59
2024/01/21 01:01:19;;;;;;;0.50;0.50;;;;;;;-3.67;98.88;102194.81;5094432;28;20035;-59
2024/01/21 01:03:44;;;;;;;0.70;0.70;;;;;;;-3.71;99.89;102195.19;5094579;28;20384;-59
2024/01/21 01:06:10;;;;;;;0.70;0.70;;;;;;;-3.67;98.79;102184.72;5093432;28;20025;-60
2024/01/21 01:08:35;;;;;;;0.73;0.73;;;;;;;-3.75;99.35;102182.97;5094630;28;20034;-59
2024/01/21 01:11:00;;;;;;;0.60;0.60;;;;;;;-3.72;98.67;102180.81;5094131;28;20035;-59
2024/01/21 01:13:26;;;;;;;0.70;0.70;;;;;;;-3.68;97.19;102164.38;5093264;28;20035;-59
2024/01/21 01:15:51;;;;;;;0.70;0.70;;;;;;;-3.68;95.77;102162.78;5094591;28;20020;-59
2024/01/21 01:18:16;;;;;;;0.70;0.70;;;;;;;-3.68;95.76;102155.22;5094036;28;20486;-59
2024/01/21 01:20:42;;;;;;;0.70;0.70;;;;;;;-3.74;96.58;102147.00;5093654;28;20028;-59
2024/01/21 01:23:07;;;;;;;0.70;0.70;;;;;;;-3.82;97.74;102133.56;5094296;28;20020;-59
2024/01/21 01:25:32;;;;;;;0.70;0.70;;;;;;;-3.78;95.23;102132.28;5093935;28;20106;-59
2024/01/21 01:27:57;;;;;;;0.70;0.70;;;;;;;-3.85;96.04;102117.22;5093484;28;20173;-59
2024/01/21 01:30:23;;;;;;;0.70;0.70;;;;;;;-3.86;96.18;102115.44;5093871;28;20032;-59
2024/01/21 01:32:48;;;;;;;0.70;0.70;;;;;;;-3.84;94.87;102119.91;5093989;28;20024;-58
2024/01/21 01:35:13;;;;;;;0.70;0.70;;;;;;;-3.84;94.38;102117.38;5093052;28;20028;-59
2024/01/21 01:37:39;;;;;;;0.60;0.60;;;;;;;-3.84;95.10;102114.88;5094000;28;20449;-58
2024/01/21 01:40:06;;;;;;;0.60;0.60;;;;;;;-3.87;95.19;102111.16;5093948;28;20055;-59
2024/01/21 01:42:31;;;;;;;0.60;0.60;;;;;;;-3.79;94.80;102100.25;5092840;28;20055;-59
2024/01/21 01:44:57;;;;;;;0.68;0.68;;;;;;;-3.85;95.03;102082.88;5094501;28;20380;-59
2024/01/21 01:47:22;;;;;;;0.70;0.70;;;;;;;-3.80;93.25;102090.91;5093798;28;20095;-59
2024/01/21 01:49:47;;;;;;;0.60;0.60;;;;;;;-3.73;93.65;102084.88;5093446;28;20369;-58
2024/01/21 01:52:15;;;;;;;0.60;0.60;;;;;;;-3.72;92.50;102080.03;5093403;28;20031;-59
2024/01/21 01:54:41;;;;;;;0.70;0.70;;;;;;;-3.69;91.65;102075.31;5093466;28;20028;-59
2024/01/21 01:57:07;;;;;;;0.70;0.70;;;;;;;-3.64;90.71;102064.09;5093057;28;20028;-58
2024/01/21 01:59:33;;;;;;;0.60;0.60;;;;;;;-3.63;90.46;102067.50;5093371;28;20527;-59
2024/01/21 02:01:59;;;;;;;0.60;0.60;;;;;;;-3.65;92.20;102066.47;5093415;28;20084;-58
2024/01/21 02:04:25;;;;;;;0.68;0.68;;;;;;;-3.66;91.46;102064.66;5092752;28;20024;-58
2024/01/21 02:06:50;;;;;;;0.60;0.60;;;;;;;-3.68;91.41;102062.00;5093742;28;20394;-59
2024/01/21 02:09:16;;;;;;;0.60;0.60;;;;;;;-3.70;91.89;102062.56;5092386;28;20039;-58
2024/01/21 02:11:41;;;;;;;0.70;0.70;;;;;;;-3.63;92.24;102052.38;5093170;28;20028;-59
2024/01/21 02:14:06;;;;;;;0.57;0.57;;;;;;;-3.71;91.58;102041.50;5093548;28;20028;-59
2024/01/21 02:16:31;;;;;;;0.63;0.63;;;;;;;-3.74;92.47;102043.69;5092270;28;20028;-59
2024/01/21 02:18:58;;;;;;;0.70;0.70;;;;;;;-3.68;92.50;102039.31;5093482;28;20027;-59
2024/01/21 02:21:23;;;;;;;0.60;0.60;;;;;;;-3.72;91.56;102037.22;5093003;28;20027;-58
2024/01/21 02:23:48;;;;;;;0.60;0.60;;;;;;;-3.65;91.08;102047.19;5092415;28;20353;-59
2024/01/21 02:26:14;;;;;;;0.60;0.60;;;;;;;-3.69;91.61;102040.03;5092729;28;20032;-59
2024/01/21 02:28:39;;;;;;;0.60;0.60;;;;;;;-3.65;91.83;102029.56;5093337;28;20418;-59
2024/01/21 02:31:04;;;;;;;0.60;0.60;;;;;;;-3.61;90.54;102022.34;5091651;28;20035;-59
2024/01/21 02:33:30;;;;;;;0.60;0.60;;;;;;;-3.57;90.43;102024.44;5092818;28;20410;-58
2024/01/21 02:35:55;;;;;;;0.60;0.60;;;;;;;-3.55;90.78;102008.75;5093192;28;20085;-59
2024/01/21 02:38:20;;;;;;;0.70;0.70;;;;;;;-3.52;91.42;102010.69;5092145;28;20099;-59
2024/01/21 02:40:45;;;;;;;0.70;0.70;;;;;;;-3.48;90.71;102005.22;5092920;28;20111;-59
2024/01/21 02:43:11;;;;;;;0.70;0.70;;;;;;;-3.46;91.75;101993.66;5092312;28;20557;-59
2024/01/21 02:45:36;;;;;;;0.60;0.60;;;;;;;-3.42;90.79;101989.84;5092569;28;20050;-59
2024/01/21 02:48:02;;;;;;;0.60;0.60;;;;;;;-3.38;90.96;101984.38;5093026;28;20038;-58
2024/01/21 02:50:27;;;;;;;0.60;0.60;;;;;;;-3.35;90.21;101980.56;5092296;28;20056;-58
2024/01/21 02:52:52;;;;;;;0.60;0.60;;;;;;;-3.33;91.40;101986.66;5092269;28;20115;-59
2024/01/21 02:55:18;;;;;;;0.60;0.60;;;;;;;-3.28;89.77;101983.72;5092384;28;20536;-59
2024/01/21 02:57:43;;;;;;;0.63;0.63;;;;;;;-3.24;89.53;101978.25;5092542;28;20074;-59
2024/01/21 03:00:09;;;;;;;0.50;0.50;;;;;;;-3.19;89.61;101979.63;5092447;28;20034;-58
2024/01/21 03:02:35;;;;;;;0.52;0.52;;;;;;;-3.16;88.76;101979.97;5092924;28;20026;-58
2024/01/21 03:05:00;;;;;;;0.65;0.65;;;;;;;-3.11;88.29;101993.94;5092590;28;20074;-59
2024/01/21 03:07:26;;;;;;;0.70;0.70;;;;;;;-3.06;87.92;101977.66;5092048;28;20101;-59
2024/01/21 03:09:51;;;;;;;0.60;0.60;;;;;;;-3.00;86.82;101969.81;5092540;28;20403;-59
2024/01/21 03:12:17;;;;;;;0.60;0.60;;;;;;;-2.96;87.20;101958.41;5092223;28;20035;-59
2024/01/21 03:14:42;;;;;;;0.63;0.63;;;;;;;-2.93;86.87;101949.53;5092331;28;20027;-59
2024/01/21 03:17:08;;;;;;;0.65;0.65;;;;;;;-2.91;85.47;101944.63;5092560;28;20030;-59
2024/01/21 03:19:33;;;;;;;0.63;0.63;;;;;;;-2.89;84.75;101944.03;5091984;28;20036;-59
2024/01/21 03:21:58;;;;;;;0.50;0.50;;;;;;;-2.88;85.33;101947.44;5092217;28;20074;-58
2024/01/21 03:24:24;;;;;;;0.70;0.70;;;;;;;-2.91;85.14;101940.47;5092068;28;20055;-59
2024/01/21 03:26:49;;;;;;;0.60;0.60;;;;;;;-2.89;85.71;101936.47;5091922;28;20490;-59
2024/01/21 03:29:14;;;;;;;0.60;0.60;;;;;;;-2.86;84.77;101938.41;5092091;28;20024;-59
2024/01/21 03:31:39;;;;;;;0.60;0.60;;;;;;;-2.86;84.49;101946.88;5092621;28;20032;-59
2024/01/21 03:34:05;;;;;;;0.60;0.60;;;;;;;-2.82;84.31;101945.53;5091673;28;20081;-58
2024/01/21 03:36:30;;;;;;;0.70;0.70;;;;;;;-2.78;84.78;101935.03;5091927;28;20034;-59
2024/01/21 03:38:55;;;;;;;0.60;0.60;;;;;;;-2.73;84.66;101936.38;5092213;28;20032;-58
2024/01/21 03:41:21;;;;;;;0.60;0.60;;;;;;;-2.70;84.31;101936.69;5091538;28;20428;-59
2024/01/21 03:43:46;;;;;;;0.70;0.70;;;;;;;-2.65;84.04;101934.63;5096136;28;20056;-59
2024/01/21 03:46:11;;;;;;;0.60;0.60;;;;;;;-2.57;83.30;101927.81;5095955;28;20016;-58
2024/01/21 03:48:36;;;;;;;0.60;0.60;;;;;;;-2.53;83.08;101932.44;5095303;28;20028;-58
2024/01/21 03:51:02;;;;;;;0.60;0.60;;;;;;;-2.46;82.53;101924.72;5096007;28;20028;-59
2024/01/21 03:53:27;;;;;;;0.60;0.60;;;;;;;-2.41;82.50;101926.09;5094829;28;20054;-58
2024/01/21 03:55:53;;;;;;;0.70;0.70;;;;;;;-2.32;81.23;101923.59;5095175;28;20021;-58
2024/01/21 03:58:18;;;;;;;0.60;0.60;;;;;;;-2.31;82.51;101915.28;5095439;28;20073;-59
2024/01/21 04:00:43;;;;;;;0.60;0.60;;;;;;;-2.24;80.76;101902.50;5095530;28;20029;-59
2024/01/21 04:03:08;;;;;;;0.55;0.55;;;;;;;-2.18;80.45;101898.03;5095090;28;20073;-59
2024/01/21 04:05:34;;;;;;;0.60;0.60;;;;;;;-2.13;79.98;101890.94;5095393;28;20027;-59
2024/01/21 04:07:59;;;;;;;0.70;0.70;;;;;;;-2.10;79.40;101886.16;5095547;28;20035;-59
2024/01/21 04:10:25;;;;;;;0.52;0.52;;;;;;;-2.13;80.39;101890.03;5094737;28;20032;-59
2024/01/21 04:12:50;;;;;;;0.55;0.55;;;;;;;-2.13;80.58;101875.78;5095802;28;20024;-59
2024/01/21 04:15:15;;;;;;;0.50;0.50;;;;;;;-2.11;79.78;101881.84;5095084;28;20024;-57
2024/01/21 04:17:40;;;;;;;0.57;0.57;;;;;;;-2.08;79.77;101884.69;5095056;28;20043;-57
2024/01/21 04:20:08;;;;;;;0.50;0.50;;;;;;;-2.04;80.10;101876.66;5095610;28;20031;-57
2024/01/21 04:22:33;;;;;;;;;;;;;;;-1.97;81.95;101879.78;5095229;28;20031;-57
2024/01/21 04:24:59;;;;;;;0.60;0.60;;;;;;;-1.95;79.18;101895.97;5094656;28;19912;-57
2024/01/21 04:27:24;;;;;;;0.60;0.60;;;;;;;-1.91;80.24;101888.84;5095106;28;20274;-57
2024/01/21 04:29:49;;;;;;;0.70;0.70;;;;;;;-1.86;79.15;101886.72;5094976;28;20028;-57
2024/01/21 04:32:14;;;;;;;0.60;0.60;;;;;;;-1.83;79.84;101877.81;5094356;28;20024;-57
2024/01/21 04:34:40;;;;;;;0.60;0.60;;;;;;;-1.79;79.43;101873.97;5095190;28;20016;-57
2024/01/21 04:37:05;;;;;;;0.63;0.63;;;;;;;-1.74;79.24;101870.25;5094493;28;20017;-58
2024/01/21 04:39:30;;;;;;;0.60;0.60;;;;;;;-1.69;78.74;101851.34;5094815;28;20418;-58
2024/01/21 04:41:56;;;;;;;0.60;0.60;;;;;;;-1.63;78.47;101850.16;5095295;28;20044;-57
2024/01/21 04:44:21;;;;;;;0.60;0.60;;;;;;;-1.61;78.98;101828.41;5093737;28;20077;-57
2024/01/21 04:46:47;;;;;;;0.60;0.60;;;;;;;-1.58;80.18;101813.56;5095004;28;20135;-57
2024/01/21 04:49:12;;;;;;;0.60;0.60;;;;;;;-1.52;79.19;101804.03;5094601;28;20044;-58
2024/01/21 04:51:38;;;;;;;0.45;0.45;;;;;;;-1.52;80.59;101806.56;5093886;28;20055;-58
2024/01/21 04:54:04;;;;;;;0.50;0.50;;;;;;;-1.41;78.97;101797.44;5094279;28;20026;-58
2024/01/21 04:56:29;;;;;;;0.60;0.60;;;;;;;-1.37;78.80;101789.38;5094364;28;20026;-57
2024/01/21 04:58:54;;;;;;;0.60;0.60;;;;;;;-1.33;79.26;101782.22;5094025;28;20131;-57
2024/01/21 05:01:22;;;;;;;0.60;0.60;;;;;;;-1.30;80.19;101790.81;5094076;28;20024;-57
2024/01/21 05:03:47;;;;;;;0.40;0.40;;;;;;;-1.22;80.37;101777.25;5094407;28;20024;-57
2024/01/21 05:06:12;;;;;;;0.60;0.60;;;;;;;-1.05;78.17;101783.88;5093509;28;20074;-58
2024/01/21 05:08:37;;;;;;;0.60;0.60;;;;;;;-0.94;77.36;101779.78;5094378;28;20033;-57
2024/01/21 05:11:03;;;;;;;0.50;0.50;;;;;;;-0.80;76.92;101789.53;5094237;28;20431;-58
2024/01/21 05:13:28;;;;;;;0.52;0.52;;;;;;;-0.64;74.35;101774.06;5093703;28;20427;-58
2024/01/21 05:15:53;;;;;;;0.60;0.60;;;;;;;-0.55;73.52;101784.13;5094676;28;20024;-58
2024/01/21 05:18:20;;;;;;;0.45;0.45;;;;;;;-0.53;73.85;101788.59;5093831;28;20101;-57
2024/01/21 05:20:45;;;;;;;0.60;0.60;;;;;;;-0.47;72.37;101795.81;5093578;28;20365;-57
2024/01/21 05:23:11;;;;;;;0.43;0.43;;;;;;;-0.44;73.37;101802.81;5093761;28;20487;-58
2024/01/21 05:25:36;;;;;;;0.50;0.50;;;;;;;-0.38;72.13;101790.69;5094050;28;20017;-57
2024/01/21 05:28:01;;;;;;;0.40;0.40;;;;;;;-0.35;72.40;101784.25;5093717;28;20024;-58
2024/01/21 05:30:27;;;;;;;0.50;0.50;;;;;;;-0.27;70.45;101768.84;5093867;28;20061;-58
2024/01/21 05:32:52;;;;;;;0.50;0.50;;;;;;;-0.25;70.99;101780.88;5093809;28;20431;-59
2024/01/21 05:35:18;;;;;;;0.40;0.40;;;;;;;-0.23;70.84;101758.25;5093184;28;20541;-57
2024/01/21 05:37:44;;;;;;;0.50;0.50;;;;;;;-0.20;70.59;101763.56;5093875;28;20024;-58
2024/01/21 05:40:09;;;;;;;0.60;0.60;;;;;;;-0.21;71.14;101776.97;5093551;28;20024;-58
2024/01/21 05:42:35;;;;;;;0.50;0.50;;;;;;;-0.25;72.65;101772.41;5093458;28;20110;-58
2024/01/21 05:45:00;;;;;;;0.50;0.50;;;;;;;-0.25;72.44;101785.06;5093584;28;20150;-58
2024/01/21 05:47:26;;;;;;;0.50;0.50;;;;;;;-0.26;72.08;101771.53;5092739;28;20070;-57
2024/01/21 05:49:51;;;;;;;0.50;0.50;;;;;;;-0.18;71.24;101762.06;5093679;28;20056;-58
2024/01/21 05:52:16;;;;;;;0.50;0.50;;;;;;;-0.20;72.00;101763.56;5093186;28;20082;-57
2024/01/21 05:54:42;;;;;;;0.50;0.50;;;;;;;-0.21;72.25;101776.97;5093034;28;20016;-58
2024/01/21 05:57:07;;;;;;;0.60;0.60;;;;;;;-0.23;73.17;101771.78;5093773;28;20031;-58
2024/01/21 05:59:33;;;;;;;0.50;0.50;;;;;;;-0.21;72.06;101747.50;5093396;28;20483;-58
2024/01/21 06:01:58;;;;;;;0.50;0.50;;;;;;;-0.21;72.63;101761.78;5092795;28;20032;-57
2024/01/21 06:04:24;;;;;;;0.60;0.60;;;;;;;-0.22;72.28;101765.97;5092291;28;20051;-58
2024/01/21 06:06:49;;;;;;;0.60;0.60;;;;;;;-0.19;71.95;101751.03;5092955;28;20058;-57
2024/01/21 06:09:15;;;;;;;0.50;0.50;;;;;;;-0.11;70.40;101741.56;5092331;28;20024;-57
2024/01/21 06:11:41;;;;;;;0.50;0.50;;;;;;;-0.09;71.31;101752.72;5093426;28;20024;-58
2024/01/21 06:14:06;;;;;;;0.50;0.50;;;;;;;-0.11;71.87;101749.16;5092903;28;20024;-57
2024/01/21 06:16:31;;;;;;;0.60;0.60;;;;;;;-0.10;70.44;101738.28;5092468;28;20039;-59
2024/01/21 06:18:57;;;;;;;0.50;0.50;;;;;;;-0.09;71.45;101760.34;5093333;28;20028;-58
2024/01/21 06:21:22;;;;;;;0.52;0.52;;;;;;;-0.08;70.80;101764.66;5092638;28;20024;-58
2024/01/21 06:23:47;;;;;;;0.40;0.40;;;;;;;-0.06;71.57;101780.84;5092522;28;20028;-57
2024/01/21 06:26:17;;;;;;;0.50;0.50;;;;;;;-0.07;71.36;101776.53;5092920;28;20020;-57
2024/01/21 06:28:43;;;;;;;0.40;0.40;;;;;;;-0.05;70.49;101785.19;5092879;28;20053;-58
2024/01/21 06:31:08;;;;;;;0.50;0.50;;;;;;;-0.01;69.83;101782.16;5092194;28;20124;-58
2024/01/21 06:33:33;;;;;;;0.50;0.50;;;;;;;-0.02;70.87;101779.47;5092523;28;20031;-58
2024/01/21 06:35:59;;;;;;;0.50;0.50;;;;;;;0.03;70.01;101769.72;5092604;28;20032;-58
2024/01/21 06:38:24;;;;;;;0.50;0.50;;;;;;;0.04;69.79;101779.13;5091972;28;20222;-58
2024/01/21 06:40:51;;;;;;;0.50;0.50;;;;;;;0.11;68.39;101776.38;5092594;28;20027;-58
2024/01/21 06:43:17;;;;;;;0.45;0.45;;;;;;;0.14;68.15;101784.22;5092009;28;20492;-58
2024/01/21 06:45:42;;;;;;;0.60;0.60;;;;;;;0.12;69.19;101793.38;5092712;28;20035;-58
2024/01/21 06:48:07;;;;;;;0.50;0.50;;;;;;;0.18;67.23;101791.34;5092825;28;20046;-57
2024/01/21 06:50:33;;;;;;;0.50;0.50;;;;;;;0.17;67.06;101787.06;5091911;28;20032;-57
2024/01/21 06:52:58;;;;;;;0.50;0.50;;;;;;;0.17;67.97;101792.13;5092755;28;20448;-58
2024/01/21 06:55:24;;;;;;;0.50;0.50;;;;;;;0.19;67.97;101790.59;5092738;28;20069;-57
2024/01/21 06:57:49;;;;;;;0.40;0.40;;;;;;;0.22;67.06;101793.41;5091878;28;20551;-58
2024/01/21 07:00:15;;;;;;;0.52;0.52;;;;;;;0.18;67.89;101796.41;5091928;28;20024;-58
2024/01/21 07:02:41;;;;;;;0.50;0.50;;;;;;;0.21;66.82;101794.16;5092626;28;20024;-57
2024/01/21 07:05:07;;;;;;;0.45;0.45;;;;;;;0.23;67.33;101777.41;5091928;28;20521;-57
2024/01/21 07:07:32;;;;;;;0.50;0.50;;;;;;;0.22;67.34;101768.06;5092317;28;20483;-57
2024/01/21 07:09:57;;;;;;;0.40;0.40;;;;;;;0.25;67.22;101759.81;5092183;28;20487;-57
2024/01/21 07:12:22;;;;;;;0.50;0.50;;;;;;;0.25;66.26;101745.50;5091735;28;20032;-58
2024/01/21 07:14:50;;;;;;;0.50;0.50;;;;;;;0.30;65.01;101726.50;5092587;28;20075;-58
2024/01/21 07:17:15;;;;;;;0.50;0.50;;;;;;;0.32;64.38;101722.44;5095572;28;20103;-58
2024/01/21 07:19:42;;;;;;;0.50;0.50;;;;;;;0.30;65.20;101715.47;5095959;28;20107;-58
2024/01/21 07:22:08;;;;;;;0.50;0.50;;;;;;;0.31;63.88;101738.41;5096230;28;20390;-57
2024/01/21 07:24:33;;;;;;;0.50;0.50;;;;;;;0.37;62.90;101727.00;5095790;28;20406;-58
2024/01/21 07:26:59;;;;;;;0.50;0.50;;;;;;;0.36;62.66;101728.63;5095733;28;20024;-58
2024/01/21 07:29:24;;;;;;;0.50;0.50;;;;;;;0.38;63.56;101728.78;5096150;28;20024;-58
2024/01/21 07:31:50;;;;;;;0.50;0.50;;;;;;;0.39;62.62;101736.53;5096197;28;20036;-58
2024/01/21 07:34:15;;;;;;;0.50;0.50;;;;;;;0.37;62.58;101734.63;5095296;28;20182;-57
2024/01/21 07:36:41;;;;;;;0.40;0.40;;;;;;;0.32;63.82;101739.28;5096099;28;20537;-59
2024/01/21 07:39:06;;;;;;;0.50;0.50;;;;;;;0.32;63.16;101737.66;5096047;28;20467;-59
2024/01/21 07:41:31;;;;;;;0.50;0.50;;;;;;;0.34;63.04;101725.09;5095250;28;20024;-59
2024/01/21 07:43:57;;;;;;;0.50;0.50;;;;;;;0.37;61.79;101735.50;5095940;28;20059;-59
2024/01/21 07:46:22;;;;;;;0.50;0.50;;;;;;;0.35;61.53;101726.88;5095519;28;20020;-58
2024/01/21 07:48:48;;;;;;;0.50;0.50;;;;;;;0.31;62.73;101734.97;5095229;28;20051;-58
2024/01/21 07:51:16;;;;;;;0.50;0.50;;;;;;;0.28;62.99;101760.94;5095234;28;20062;-59
2024/01/21 07:53:41;;;;;;;0.50;0.50;;;;;;;0.26;63.01;101767.56;5095746;28;20028;-58
2024/01/21 07:56:06;;;;;;;0.50;0.50;;;;;;;0.26;63.34;101772.63;5095380;28;20432;-58
2024/01/21 07:58:31;;;;;;;0.50;0.50;;;;;;;0.25;63.44;101773.38;5095473;28;20024;-58
2024/01/21 08:00:57;;;;;;;0.50;0.50;;;;;;;0.30;63.33;101776.31;5094803;28;20043;-58
2024/01/21 08:03:22;;;;;;;0.50;0.50;;;;;;;0.30;62.84;101782.28;5095495;28;20024;-58
2024/01/21 08:05:47;;;;;;;0.60;0.60;;;;;;;0.29;63.85;101803.31;5095374;28;20020;-58
2024/01/21 08:08:12;;;;;;;0.50;0.50;;;;;;;0.25;64.78;101821.56;5094705;28;20598;-58
2024/01/21 08:10:38;;;;;;;0.40;0.40;;;;;;;0.20;64.79;101817.72;5095152;28;20024;-58
2024/01/21 08:13:03;;;;;;;0.43;0.43;;;;;;;0.25;64.33;101840.97;5095141;28;20012;-58
2024/01/21 08:15:28;;;;;;;0.50;0.50;;;;;;;0.33;64.39;101843.38;5094551;28;20034;-58
2024/01/21 08:17:54;;;;;;;0.40;0.40;;;;;;;0.39;64.08;101824.38;5095367;28;20020;-57
2024/01/21 08:20:20;;;;;;;0.60;0.60;;;;;;;0.46;63.58;101831.78;5094553;28;20024;-58
2024/01/21 08:22:46;;;;;;;0.50;0.50;;;;;;;0.54;64.32;101843.44;5094799;28;20024;-58
2024/01/21 08:25:11;;;;;;;0.50;0.50;;;;;;;0.59;64.55;101841.31;5095049;28;20035;-58
2024/01/21 08:27:36;;;;;;;0.50;0.50;;;;;;;0.64;63.39;101823.19;5094009;28;20020;-58
2024/01/21 08:30:04;;;;;;;0.50;0.50;;;;;;;0.70;63.97;101834.63;5094470;28;20035;-58
2024/01/21 08:32:29;;;;;;;0.40;0.40;;;;;;;0.73;63.89;101829.81;5094879;28;20127;-58
2024/01/21 08:34:55;;;;;;;0.50;0.50;;;;;;;0.74;64.78;101826.53;5094940;28;20107;-58
2024/01/21 08:37:20;;;;;;;0.50;0.50;;;;;;;0.79;64.30;101807.50;5094155;28;20060;-58
2024/01/21 08:39:48;;;;;;;0.40;0.40;;;;;;;0.84;64.06;101815.50;5095113;28;20047;-58
2024/01/21 08:42:13;;;;;;;0.50;0.50;;;;;;;0.86;64.59;101814.88;5094228;28;20508;-58
2024/01/21 08:44:38;;;;;;;0.40;0.40;;;;;;;0.91;64.07;101800.91;5093899;28;20135;-58
2024/01/21 08:47:04;;;;;;;0.50;0.50;;;;;;;0.93;66.68;101812.09;5094735;28;20048;-58
2024/01/21 08:49:29;;;;;;;0.43;0.43;;;;;;;0.98;65.94;101825.16;5094160;28;20032;-58
2024/01/21 08:51:54;;;;;;;0.50;0.50;;;;;;;0.98;66.93;101835.31;5094293;28;20456;-58
2024/01/21 08:54:20;;;;;;;0.38;0.38;;;;;;;1.00;67.82;101832.94;5094191;28;20028;-58
2024/01/21 08:56:45;;;;;;;0.50;0.50;;;;;;;1.07;67.90;101840.28;5094303;28;20024;-58
2024/01/21 08:59:10;;;;;;;0.47;0.47;;;;;;;1.11;68.75;101839.78;5093832;28;20024;-58
2024/01/21 09:01:36;;;;;;;0.45;0.45;;;;;;;1.17;70.05;101837.75;5094511;28;20016;-58
2024/01/21 09:04:02;;;;;;;0.50;0.50;;;;;;;1.21;71.39;101819.47;5093876;28;20338;-58
2024/01/21 09:06:27;;;;;;;0.40;0.40;;;;;;;1.24;73.85;101826.44;5093852;28;20028;-58
2024/01/21 09:08:54;;;;;;;0.40;0.40;;;;;;;1.23;75.09;101822.16;5094695;28;20563;-58
2024/01/21 09:11:25;;;;;;;0.40;0.40;;;;;;;1.19;76.34;101810.84;5093507;28;20035;-58
2024/01/21 09:13:50;;;;;;;0.40;0.40;;;;;;;1.16;77.93;101823.28;5094078;28;20020;-58
2024/01/21 09:16:16;;;;;;;0.40;0.40;;;;;;;1.17;80.95;101845.38;5093696;28;20078;-58
2024/01/21 09:18:42;;;;;;;0.43;0.43;;;;;;;1.18;84.00;101854.78;5093727;28;20020;-58
2024/01/21 09:21:07;;;;;;;0.40;0.40;;;;;;;1.23;85.37;101848.44;5094370;28;20483;-58
2024/01/21 09:23:32;;;;;;;0.50;0.50;;;;;;;1.19;85.70;101856.56;5093685;28;20069;-58
2024/01/21 09:25:58;;;;;;;0.40;0.40;;;;;;;1.20;87.34;101855.81;5093750;28;20051;-58
2024/01/21 09:28:24;;;;;;;0.50;0.50;;;;;;;1.23;88.45;101862.78;5093940;28;20057;-58
2024/01/21 09:30:49;;;;;;;0.50;0.50;;;;;;;1.23;89.34;101853.50;5093559;28;20450;-58
2024/01/21 09:33:14;;;;;;;0.40;0.40;;;;;;;1.28;89.99;101852.25;5093080;28;20031;-58
2024/01/21 09:35:39;;;;;;;0.40;0.40;;;;;;;1.29;91.15;101858.19;5093895;28;20039;-58
2024/01/21 09:38:05;;;;;;;0.50;0.50;;;;;;;1.33;92.72;101861.88;5093853;28;20399;-58
2024/01/21 09:40:31;;;;;;;0.50;0.50;;;;;;;1.33;94.25;101872.94;5092992;28;20107;-58
2024/01/21 09:42:56;;;;;;;0.50;0.50;;;;;;;1.28;95.58;101877.63;5093546;28;20094;-58
2024/01/21 09:45:23;;;;;;;0.50;0.50;;;;;;;1.25;97.21;101882.47;5092652;28;20030;-58
2024/01/21 09:47:52;;;;;;;0.50;0.50;;;;;;;1.24;99.24;101884.84;5090867;28;20024;-58
2024/01/21 09:50:21;;;;;;;0.50;0.50;;;;;;;1.20;100.00;101875.22;5093316;28;20028;-57
2024/01/21 09:52:46;;;;;;;0.40;0.40;;;;;;;1.18;100.00;101875.09;5093424;28;20080;-57
2024/01/21 09:55:11;;;;;;;0.50;0.50;;;;;;;1.19;100.00;101879.41;5092499;28;20391;-58
2024/01/21 09:57:38;;;;;;;0.50;0.50;;;;;;;1.18;100.00;101876.75;5092085;28;20103;-58
2024/01/21 10:00:06;;;;;;;0.50;0.50;;;;;;;1.19;100.00;101875.97;5092726;28;20031;-58
2024/01/21 10:02:32;;;;;;;0.50;0.50;;;;;;;1.20;100.00;101877.75;5091443;28;20036;-58
2024/01/21 10:04:58;;;;;;;0.45;0.45;;;;;;;1.18;100.00;101877.63;5093049;28;20028;-59
2024/01/21 10:07:24;;;;;;;0.50;0.50;;;;;;;1.20;100.00;101876.13;5092720;28;20031;-59
2024/01/21 10:09:54;;;;;;;0.38;0.38;;;;;;;1.21;100.00;101869.38;5092934;28;20020;-59
2024/01/21 10:12:22;;;;;;;0.50;0.50;;;;;;;1.23;100.00;101866.19;5092563;28;20032;-59
2024/01/21 10:14:48;;;;;;;0.40;0.40;;;;;;;1.27;100.00;101855.53;5092552;28;20034;-59
2024/01/21 10:17:13;;;;;;;0.43;0.43;;;;;;;1.33;100.00;101866.97;5092953;28;20028;-59
2024/01/21 10:19:39;;;;;;;0.50;0.50;;;;;;;1.36;100.00;101869.78;5092723;28;20482;-58
2024/01/21 10:22:13;;;;;;;0.50;0.50;;;;;;;1.38;100.00;101873.31;5092509;28;20078;-59
2024/01/21 10:24:43;;;;;;;0.50;0.50;;;;;;;1.38;100.00;101853.00;5092523;28;20074;-58
2024/01/21 10:27:09;;;;;;;0.40;0.40;;;;;;;1.35;100.00;101843.47;5092579;28;20111;-58
2024/01/21 10:29:43;;;;;;;0.45;0.45;;;;;;;1.44;100.00;101828.97;5092297;28;20387;-58
2024/01/21 10:32:10;;;;;;;0.47;0.47;;;;;;;1.54;100.00;101835.72;5092940;28;20032;-58
2024/01/21 10:34:40;;;;;;;0.40;0.40;;;;;;;1.56;100.00;101834.22;5092219;28;20122;-58
2024/01/21 10:37:06;;;;;;;0.40;0.40;;;;;;;1.57;100.00;101825.78;5092105;28;20024;-58
2024/01/21 10:39:35;;;;;;;0.40;0.40;;;;;;;1.56;100.00;101828.22;5092500;28;20460;-58
2024/01/21 10:42:01;;;;;;;0.40;0.40;;;;;;;1.55;100.00;101822.25;5092414;28;20039;-58
2024/01/21 10:44:27;;;;;;;0.40;0.40;;;;;;;1.55;100.00;101821.34;5091820;28;20048;-58
2024/01/21 10:46:54;;;;;;;0.30;0.30;;;;;;;1.54;100.00;101824.69;5092918;28;20024;-58
2024/01/21 10:49:20;;;;;;;0.45;0.45;;;;;;;1.56;100.00;101811.34;5092162;28;20379;-58
2024/01/21 10:51:46;;;;;;;0.47;0.47;;;;;;;1.59;100.00;101813.25;5091827;28;20024;-59
2024/01/21 10:54:13;;;;;;;0.50;0.50;;;;;;;1.61;100.00;101802.44;5092414;28;20112;-59
2024/01/21 10:56:39;;;;;;;0.40;0.40;;;;;;;1.66;100.00;101814.63;5092240;28;20032;-58
2024/01/21 10:59:05;;;;;;;0.40;0.40;;;;;;;1.71;100.00;101803.19;5092277;28;20020;-59
2024/01/21 11:01:32;;;;;;;0.50;0.50;;;;;;;1.76;100.00;101799.34;5092268;28;20077;-58
2024/01/21 11:04:07;;;;;;;0.50;0.50;;;;;;;1.79;100.00;101791.97;5092082;28;20031;-59
2024/01/21 11:06:33;;;;;;;0.40;0.40;;;;;;;1.89;100.00;101788.50;5092194;28;20392;-58
2024/01/21 11:09:02;;;;;;;0.50;0.50;;;;;;;1.94;100.00;101788.09;5092277;28;20050;-59
2024/01/21 11:11:27;;;;;;;0.50;0.50;;;;;;;2.01;100.00;101788.59;5091449;28;20474;-59
2024/01/21 11:13:53;;;;;;;0.40;0.40;;;;;;;2.08;100.00;101794.28;5092541;28;20127;-58
2024/01/21 11:16:25;;;;;;;0.40;0.40;;;;;;;2.19;100.00;101809.50;5091931;28;20023;-58
2024/01/21 11:18:50;;;;;;;0.40;0.40;;;;;;;2.26;100.00;101805.03;5091870;28;20023;-59